createdAt,value
2019-02-11T04:46:37.111Z,8.88
2019-02-11T04:49:08.137Z,13.08
2019-02-11T04:51:38.587Z,9.70
2019-02-11T04:54:08.987Z,6.78
2019-02-11T04:56:39.374Z,12.65
2019-02-11T04:59:10.161Z,4.80
2019-02-11T05:01:40.691Z,10.05
2019-02-11T05:04:11.222Z,18.48
2019-02-11T05:06:41.659Z,15.63
2019-02-11T05:09:12.073Z,13.28
2019-02-11T05:11:42.516Z,14.80
2019-02-11T05:14:12.957Z,19.30
2019-02-11T05:16:43.456Z,23.62
2019-02-11T05:19:13.887Z,25.00
2019-02-11T05:21:44.329Z,18.35
2019-02-11T05:24:14.740Z,9.08
2019-02-11T05:26:45.229Z,11.03
2019-02-11T05:29:15.630Z,17.50
2019-02-11T05:31:46.032Z,17.57
2019-02-11T05:34:16.468Z,17.95
2019-02-11T05:36:46.917Z,18.40
2019-02-11T05:39:17.421Z,9.48
2019-02-11T05:41:47.842Z,10.55
2019-02-11T05:44:18.237Z,11.90
2019-02-11T05:46:48.641Z,6.97
2019-02-11T05:49:19.129Z,14.33
2019-02-11T05:51:49.564Z,14.65
2019-02-11T05:54:19.950Z,11.22
2019-02-11T05:56:50.415Z,15.68
2019-02-11T05:59:20.791Z,18.77
2019-02-11T06:01:51.177Z,10.32
2019-02-11T06:04:21.598Z,7.53
2019-02-11T06:06:52.031Z,7.53
2019-02-11T06:09:23.255Z,8.13
2019-02-11T06:11:53.903Z,13.43
2019-02-11T06:14:24.451Z,19.52
2019-02-11T06:16:54.825Z,7.28
2019-02-11T06:19:25.297Z,7.28
2019-02-11T06:21:55.718Z,4.20
2019-02-11T06:24:26.151Z,13.70
2019-02-11T06:26:56.685Z,34.15
2019-02-11T06:29:27.115Z,10.90
2019-02-11T06:31:57.496Z,34.88
2019-02-11T06:34:28.373Z,93.52
2019-02-11T06:36:58.851Z,178.30
2019-02-11T06:39:29.337Z,249.27
2019-02-11T06:41:59.770Z,124.33
2019-02-11T06:44:30.189Z,200.62
2019-02-11T06:47:01.640Z,64.62
2019-02-11T06:49:32.072Z,93.22
2019-02-11T06:52:03.620Z,61.02
2019-02-11T06:54:34.054Z,67.03
2019-02-11T06:57:04.991Z,73.45
2019-02-11T06:59:35.422Z,36.15
2019-02-11T07:02:05.811Z,47.67
2019-02-11T07:04:36.275Z,40.85
2019-02-11T07:07:06.706Z,12.75
2019-02-11T07:09:37.138Z,38.98
2019-02-11T07:12:07.767Z,11.03
2019-02-11T07:14:38.200Z,13.32
2019-02-11T07:17:08.621Z,10.28
2019-02-11T07:19:39.051Z,11.95
2019-02-11T07:22:09.484Z,25.37
2019-02-11T07:24:39.902Z,11.28
2019-02-11T07:27:10.431Z,7.95
2019-02-11T07:29:40.875Z,11.88
2019-02-11T07:32:11.329Z,12.78
2019-02-11T07:34:41.828Z,18.80
2019-02-11T07:37:12.249Z,12.13
2019-02-11T07:39:42.679Z,11.53
2019-02-11T07:42:20.484Z,8.45
2019-02-11T07:44:52.512Z,14.73
2019-02-11T07:47:23.084Z,20.15
2019-02-11T07:49:53.615Z,14.68
2019-02-11T07:52:26.969Z,11.60
2019-02-11T07:54:56.212Z,17.90
2019-02-11T07:57:26.740Z,21.07
2019-02-11T07:59:57.429Z,19.05
2019-02-11T08:02:27.932Z,22.32
2019-02-11T08:04:58.434Z,16.20
2019-02-11T08:07:28.965Z,16.67
2019-02-11T08:09:59.393Z,12.05
2019-02-11T08:12:29.813Z,9.63
2019-02-11T08:15:00.340Z,7.42
2019-02-11T08:17:30.772Z,5.45
2019-02-11T08:20:01.314Z,7.42
2019-02-11T08:22:31.736Z,5.90
2019-02-11T08:25:02.124Z,7.33
2019-02-11T08:27:32.688Z,14.05
2019-02-11T08:30:04.074Z,6.87
2019-02-11T08:32:34.569Z,2.83
2019-02-11T08:35:06.189Z,3.62
2019-02-11T08:37:36.622Z,2.40
2019-02-11T08:40:08.938Z,9.90
2019-02-11T08:42:39.363Z,3.87
2019-02-11T08:45:10.737Z,10.13
2019-02-11T08:47:41.137Z,9.93
2019-02-11T08:50:11.564Z,8.70
2019-02-11T08:52:42.095Z,7.30
2019-02-11T08:55:12.628Z,22.50
2019-02-11T08:57:43.048Z,47.17
2019-02-11T09:00:13.999Z,19.77
2019-02-11T09:02:44.658Z,30.35
2019-02-11T09:05:15.106Z,16.67
2019-02-11T09:07:45.684Z,15.20
2019-02-11T09:10:16.123Z,15.38
2019-02-11T09:12:46.504Z,13.80
2019-02-11T09:15:16.967Z,19.98
2019-02-11T09:17:47.469Z,21.15
2019-02-11T09:20:17.852Z,19.70
2019-02-11T09:22:48.992Z,21.70
2019-02-11T09:25:19.423Z,40.08
2019-02-11T09:27:49.855Z,19.77
2019-02-11T09:30:20.287Z,12.65
2019-02-11T09:32:50.816Z,10.10
2019-02-11T09:35:21.199Z,37.53
2019-02-11T09:37:51.670Z,19.87
2019-02-11T09:40:22.049Z,20.92
2019-02-11T09:42:52.524Z,15.15
2019-02-11T09:45:25.206Z,21.35
2019-02-11T09:47:55.583Z,22.40
2019-02-11T09:50:29.337Z,20.72
2019-02-11T09:52:59.771Z,20.55
2019-02-11T09:55:32.562Z,16.57
2019-02-11T09:58:03.314Z,20.97
2019-02-11T10:00:33.698Z,14.53
2019-02-11T10:03:04.169Z,26.73
2019-02-11T10:05:34.645Z,13.25
2019-02-11T10:08:05.102Z,18.80
2019-02-11T10:10:35.520Z,16.35
2019-02-11T10:13:06.075Z,25.55
2019-02-11T10:15:36.452Z,18.60
2019-02-11T10:18:06.837Z,27.07
2019-02-11T10:20:37.356Z,15.20
2019-02-11T10:23:10.649Z,14.68
2019-02-11T10:25:41.177Z,22.77
2019-02-11T10:28:12.386Z,16.60
2019-02-11T10:30:42.851Z,18.52
2019-02-11T10:33:13.229Z,15.68
2019-02-11T10:35:44.011Z,69.32
2019-02-11T10:38:15.916Z,22.95
2019-02-11T10:40:46.297Z,15.28
2019-02-11T10:43:16.730Z,12.88
2019-02-11T10:45:47.153Z,17.87
2019-02-11T10:48:18.504Z,25.35
2019-02-11T10:50:48.943Z,104.45
2019-02-11T10:53:19.359Z,39.53
2019-02-11T10:55:49.790Z,71.47
2019-02-11T10:58:20.222Z,15.78
2019-02-11T11:00:50.752Z,66.20
2019-02-11T11:03:21.172Z,48.63
2019-02-11T11:05:51.709Z,36.50
2019-02-11T11:08:22.135Z,43.23
2019-02-11T11:10:52.523Z,16.52
2019-02-11T11:13:22.987Z,36.68
2019-02-11T11:15:53.421Z,28.83
2019-02-11T11:18:24.971Z,21.50
2019-02-11T11:20:55.400Z,7.58
2019-02-11T11:23:28.370Z,5.90
2019-02-11T11:25:58.848Z,13.98
2019-02-11T11:28:30.474Z,36.05
2019-02-11T11:31:01.000Z,39.67
2019-02-11T11:33:31.434Z,42.65
2019-02-11T11:36:01.822Z,13.98
2019-02-11T11:38:32.285Z,15.13
2019-02-11T11:41:02.816Z,42.60
2019-02-11T11:43:33.249Z,23.45
2019-02-11T11:46:03.682Z,19.92
2019-02-11T11:48:34.127Z,15.65
2019-02-11T11:51:04.630Z,7.00
2019-02-11T11:53:35.061Z,13.62
2019-02-11T11:56:05.597Z,14.28
2019-02-11T11:58:36.030Z,26.40
2019-02-11T12:01:07.182Z,22.30
2019-02-11T12:03:37.591Z,18.17
2019-02-11T12:06:08.058Z,25.65
2019-02-11T12:08:38.558Z,20.00
2019-02-11T12:11:08.948Z,17.60
2019-02-11T12:13:39.414Z,26.00
2019-02-11T12:16:09.846Z,14.30
2019-02-11T12:18:40.279Z,8.45
2019-02-11T12:21:10.658Z,8.25
2019-02-11T12:23:41.131Z,8.50
2019-02-11T12:26:11.577Z,29.42
2019-02-11T12:28:41.985Z,10.28
2019-02-11T12:31:12.472Z,7.67
2019-02-11T12:33:43.371Z,8.95
2019-02-11T12:36:14.878Z,4.97
2019-02-11T12:38:45.263Z,13.13
2019-02-11T12:41:15.662Z,10.40
2019-02-11T12:43:46.084Z,8.98
2019-02-11T12:46:16.525Z,9.18
2019-02-11T12:48:47.046Z,8.58
2019-02-11T12:51:17.483Z,6.20
2019-02-11T12:53:48.015Z,7.35
2019-02-11T12:56:21.005Z,23.50
